sensor_id;sensor_type;location;lat;lon;timestamp;pressure;altitude;pressure_sealevel;temperature;humidity
49055;BME280;35405;52.344;14.530;2023-04-30T05:52:01;101433.00;;;6.75;100.00
49055;BME280;35405;52.344;14.530;2023-04-30T05:54:27;101437.09;;;6.77;100.00
49055;BME280;35405;52.344;14.530;2023-04-30T05:56:52;101432.41;;;6.90;100.00
49055;BME280;35405;52.344;14.530;2023-04-30T05:59:18;101443.75;;;7.08;100.00
49055;BME280;35405;52.344;14.530;2023-04-30T06:01:43;101444.06;;;7.12;100.00
49055;BME280;35405;52.344;14.530;2023-04-30T06:04:08;101450.66;;;6.99;100.00
49055;BME280;35405;52.344;14.530;2023-04-30T06:06:33;101447.28;;;7.09;100.00
49055;BME280;35405;52.344;14.530;2023-04-30T06:08:58;101450.88;;;7.37;100.00
49055;BME280;35405;52.344;14.530;2023-04-30T06:11:24;101450.53;;;7.50;100.00
49055;BME280;35405;52.344;14.530;2023-04-30T06:13:49;101452.78;;;7.58;100.00
49055;BME280;35405;52.344;14.530;2023-04-30T06:16:15;101463.03;;;7.78;100.00
49055;BME280;35405;52.344;14.530;2023-04-30T06:18:40;101460.97;;;7.63;100.00
49055;BME280;35405;52.344;14.530;2023-04-30T06:21:05;101471.88;;;7.68;100.00
49055;BME280;35405;52.344;14.530;2023-04-30T06:23:30;101475.69;;;7.72;100.00
49055;BME280;35405;52.344;14.530;2023-04-30T06:25:56;101473.38;;;7.59;100.00
49055;BME280;35405;52.344;14.530;2023-04-30T06:28:21;101468.97;;;7.75;100.00
49055;BME280;35405;52.344;14.530;2023-04-30T06:30:46;101479.16;;;7.68;100.00
49055;BME280;35405;52.344;14.530;2023-04-30T06:33:11;101475.66;;;7.67;100.00
49055;BME280;35405;52.344;14.530;2023-04-30T06:35:37;101480.88;;;7.74;100.00
49055;BME280;35405;52.344;14.530;2023-04-30T06:38:02;101485.13;;;7.70;100.00
49055;BME280;35405;52.344;14.530;2023-04-30T06:40:27;101487.19;;;7.85;100.00
49055;BME280;35405;52.344;14.530;2023-04-30T06:42:52;101492.28;;;8.03;100.00
49055;BME280;35405;52.344;14.530;2023-04-30T06:45:18;101491.09;;;7.94;100.00
49055;BME280;35405;52.344;14.530;2023-04-30T06:47:43;101485.69;;;7.94;100.00
49055;BME280;35405;52.344;14.530;2023-04-30T06:50:10;101495.19;;;7.96;100.00
49055;BME280;35405;52.344;14.530;2023-04-30T06:52:35;101499.34;;;8.04;100.00
49055;BME280;35405;52.344;14.530;2023-04-30T06:55:00;101495.41;;;8.17;100.00
49055;BME280;35405;52.344;14.530;2023-04-30T06:57:26;101491.31;;;8.14;100.00
49055;BME280;35405;52.344;14.530;2023-04-30T06:59:51;101490.28;;;8.15;100.00
49055;BME280;35405;52.344;14.530;2023-04-30T07:02:16;101496.06;;;8.29;100.00
49055;BME280;35405;52.344;14.530;2023-04-30T07:04:42;101487.44;;;8.32;100.00
49055;BME280;35405;52.344;14.530;2023-04-30T07:07:07;101480.84;;;8.50;100.00
49055;BME280;35405;52.344;14.530;2023-04-30T07:09:32;101481.50;;;8.62;100.00
49055;BME280;35405;52.344;14.530;2023-04-30T07:11:58;101485.00;;;8.58;100.00
49055;BME280;35405;52.344;14.530;2023-04-30T07:14:23;101491.25;;;8.63;100.00
49055;BME280;35405;52.344;14.530;2023-04-30T07:16:48;101497.88;;;8.73;100.00
49055;BME280;35405;52.344;14.530;2023-04-30T07:19:13;101500.06;;;8.76;100.00
49055;BME280;35405;52.344;14.530;2023-04-30T07:21:39;101496.59;;;8.85;100.00
49055;BME280;35405;52.344;14.530;2023-04-30T07:24:04;101505.59;;;8.91;100.00
49055;BME280;35405;52.344;14.530;2023-04-30T07:26:29;101497.53;;;9.01;100.00
49055;BME280;35405;52.344;14.530;2023-04-30T07:28:55;101499.28;;;8.80;100.00
49055;BME280;35405;52.344;14.530;2023-04-30T07:31:20;101509.03;;;8.81;100.00
49055;BME280;35405;52.344;14.530;2023-04-30T07:33:45;101512.69;;;8.38;100.00
49055;BME280;35405;52.344;14.530;2023-04-30T07:36:11;101505.19;;;8.45;100.00
49055;BME280;35405;52.344;14.530;2023-04-30T07:38:36;101509.34;;;8.85;100.00
49055;BME280;35405;52.344;14.530;2023-04-30T07:41:01;101508.09;;;8.98;100.00
49055;BME280;35405;52.344;14.530;2023-04-30T07:43:27;101522.63;;;9.19;100.00
49055;BME280;35405;52.344;14.530;2023-04-30T07:45:52;101518.31;;;9.28;100.00
49055;BME280;35405;52.344;14.530;2023-04-30T07:48:18;101508.97;;;9.56;100.00
49055;BME280;35405;52.344;14.530;2023-04-30T07:50:46;101514.16;;;9.62;100.00
49055;BME280;35405;52.344;14.530;2023-04-30T07:53:11;101519.53;;;9.52;100.00
49055;BME280;35405;52.344;14.530;2023-04-30T07:55:36;101519.81;;;9.08;100.00
49055;BME280;35405;52.344;14.530;2023-04-30T07:58:01;101521.44;;;9.04;100.00
49055;BME280;35405;52.344;14.530;2023-04-30T08:00:27;101519.28;;;9.11;100.00
49055;BME280;35405;52.344;14.530;2023-04-30T08:02:54;101536.00;;;9.30;100.00
49055;BME280;35405;52.344;14.530;2023-04-30T08:05:20;101539.56;;;9.36;100.00
49055;BME280;35405;52.344;14.530;2023-04-30T08:07:45;101531.19;;;9.43;100.00
49055;BME280;35405;52.344;14.530;2023-04-30T08:10:10;101530.56;;;9.78;100.00
49055;BME280;35405;52.344;14.530;2023-04-30T08:12:36;101532.72;;;9.81;100.00
49055;BME280;35405;52.344;14.530;2023-04-30T08:15:04;101538.69;;;9.83;100.00
49055;BME280;35405;52.344;14.530;2023-04-30T08:17:33;101540.31;;;9.79;100.00
49055;BME280;35405;52.344;14.530;2023-04-30T08:19:59;101531.22;;;9.53;100.00
49055;BME280;35405;52.344;14.530;2023-04-30T08:22:24;101538.75;;;9.98;100.00
49055;BME280;35405;52.344;14.530;2023-04-30T08:24:49;101530.22;;;10.32;100.00
49055;BME280;35405;52.344;14.530;2023-04-30T08:27:15;101533.78;;;10.84;100.00
49055;BME280;35405;52.344;14.530;2023-04-30T08:29:40;101538.97;;;10.80;100.00
49055;BME280;35405;52.344;14.530;2023-04-30T08:32:06;101538.13;;;11.05;100.00
49055;BME280;35405;52.344;14.530;2023-04-30T08:34:33;101540.03;;;11.15;100.00
49055;BME280;35405;52.344;14.530;2023-04-30T08:36:59;101538.38;;;11.19;100.00
49055;BME280;35405;52.344;14.530;2023-04-30T08:39:25;101544.91;;;11.23;100.00
49055;BME280;35405;52.344;14.530;2023-04-30T08:41:52;101544.38;;;11.01;100.00
49055;BME280;35405;52.344;14.530;2023-04-30T08:44:20;101542.47;;;10.55;100.00
49055;BME280;35405;52.344;14.530;2023-04-30T08:46:45;101548.69;;;10.40;100.00
49055;BME280;35405;52.344;14.530;2023-04-30T08:49:12;101548.72;;;10.50;100.00
49055;BME280;35405;52.344;14.530;2023-04-30T08:51:37;101542.75;;;10.94;100.00
49055;BME280;35405;52.344;14.530;2023-04-30T08:54:02;101550.38;;;10.97;100.00
49055;BME280;35405;52.344;14.530;2023-04-30T08:56:27;101554.03;;;10.20;100.00
49055;BME280;35405;52.344;14.530;2023-04-30T08:58:55;101543.72;;;10.22;100.00
49055;BME280;35405;52.344;14.530;2023-04-30T09:01:20;101549.25;;;10.42;100.00
49055;BME280;35405;52.344;14.530;2023-04-30T09:03:47;101544.94;;;10.67;100.00
49055;BME280;35405;52.344;14.530;2023-04-30T09:06:15;101547.94;;;10.96;100.00
49055;BME280;35405;52.344;14.530;2023-04-30T09:08:44;101552.28;;;10.97;100.00
49055;BME280;35405;52.344;14.530;2023-04-30T09:11:20;101548.75;;;11.02;100.00
49055;BME280;35405;52.344;14.530;2023-04-30T09:13:47;101541.13;;;10.98;100.00
49055;BME280;35405;52.344;14.530;2023-04-30T09:16:13;101558.25;;;11.14;100.00
49055;BME280;35405;52.344;14.530;2023-04-30T09:18:38;101564.53;;;10.79;100.00
49055;BME280;35405;52.344;14.530;2023-04-30T09:21:04;101565.06;;;11.07;100.00
49055;BME280;35405;52.344;14.530;2023-04-30T09:23:32;101561.78;;;11.40;100.00
49055;BME280;35405;52.344;14.530;2023-04-30T09:25:57;101565.56;;;11.50;100.00
49055;BME280;35405;52.344;14.530;2023-04-30T09:28:22;101571.06;;;11.29;100.00
49055;BME280;35405;52.344;14.530;2023-04-30T09:30:50;101575.41;;;11.10;100.00
49055;BME280;35405;52.344;14.530;2023-04-30T09:33:16;101580.06;;;11.04;100.00
49055;BME280;35405;52.344;14.530;2023-04-30T09:35:41;101579.50;;;11.23;100.00
49055;BME280;35405;52.344;14.530;2023-04-30T09:38:07;101568.34;;;11.09;100.00
49055;BME280;35405;52.344;14.530;2023-04-30T09:40:35;101565.63;;;11.09;100.00
49055;BME280;35405;52.344;14.530;2023-04-30T09:43:01;101568.63;;;10.97;100.00
49055;BME280;35405;52.344;14.530;2023-04-30T09:45:37;101568.59;;;10.82;100.00
49055;BME280;35405;52.344;14.530;2023-04-30T09:48:03;101574.34;;;10.95;100.00
49055;BME280;35405;52.344;14.530;2023-04-30T09:50:31;101557.72;;;10.97;100.00
49055;BME280;35405;52.344;14.530;2023-04-30T09:53:04;101562.06;;;11.24;100.00
49055;BME280;35405;52.344;14.530;2023-04-30T09:55:31;101567.78;;;11.27;100.00
49055;BME280;35405;52.344;14.530;2023-04-30T09:57:57;101564.53;;;11.15;100.00
49055;BME280;35405;52.344;14.530;2023-04-30T10:00:22;101564.25;;;11.32;100.00
49055;BME280;35405;52.344;14.530;2023-04-30T10:02:48;101554.69;;;11.50;100.00
49055;BME280;35405;52.344;14.530;2023-04-30T10:05:13;101560.69;;;11.41;100.00
49055;BME280;35405;52.344;14.530;2023-04-30T10:07:39;101556.63;;;11.29;100.00
49055;BME280;35405;52.344;14.530;2023-04-30T10:10:09;101554.16;;;11.27;100.00
49055;BME280;35405;52.344;14.530;2023-04-30T10:12:47;101549.81;;;11.21;100.00
49055;BME280;35405;52.344;14.530;2023-04-30T10:15:15;101553.06;;;11.38;100.00
49055;BME280;35405;52.344;14.530;2023-04-30T10:17:41;101552.47;;;11.57;100.00
49055;BME280;35405;52.344;14.530;2023-04-30T10:20:09;101555.75;;;11.59;100.00
49055;BME280;35405;52.344;14.530;2023-04-30T10:22:36;101543.75;;;11.55;100.00
49055;BME280;35405;52.344;14.530;2023-04-30T10:28:04;101549.75;;;11.52;100.00
49055;BME280;35405;52.344;14.530;2023-04-30T10:30:44;101545.16;;;11.42;96.42
49055;BME280;35405;52.344;14.530;2023-04-30T10:36:13;101563.84;;;11.89;98.80
49055;BME280;35405;52.344;14.530;2023-04-30T10:38:41;101545.84;;;11.83;100.00
49055;BME280;35405;52.344;14.530;2023-04-30T10:41:07;101552.47;;;11.62;100.00
49055;BME280;35405;52.344;14.530;2023-04-30T10:43:34;101543.41;;;11.77;100.00
49055;BME280;35405;52.344;14.530;2023-04-30T10:46:00;101557.84;;;11.82;100.00
49055;BME280;35405;52.344;14.530;2023-04-30T10:48:26;101552.38;;;11.87;98.94
49055;BME280;35405;52.344;14.530;2023-04-30T10:50:54;101544.28;;;11.62;99.56
49055;BME280;35405;52.344;14.530;2023-04-30T10:53:19;101544.81;;;11.64;100.00
49055;BME280;35405;52.344;14.530;2023-04-30T10:55:52;101547.28;;;11.60;100.00
49055;BME280;35405;52.344;14.530;2023-04-30T10:58:28;101552.97;;;11.64;100.00
49055;BME280;35405;52.344;14.530;2023-04-30T11:01:00;101548.06;;;11.66;100.00
49055;BME280;35405;52.344;14.530;2023-04-30T11:03:29;101543.50;;;11.51;100.00
49055;BME280;35405;52.344;14.530;2023-04-30T11:05:58;101541.56;;;11.57;100.00
49055;BME280;35405;52.344;14.530;2023-04-30T11:08:37;101549.19;;;11.65;100.00
49055;BME280;35405;52.344;14.530;2023-04-30T11:11:04;101542.31;;;11.78;100.00
49055;BME280;35405;52.344;14.530;2023-04-30T11:13:39;101549.63;;;11.98;99.38
49055;BME280;35405;52.344;14.530;2023-04-30T11:16:05;101542.28;;;11.93;97.83
49055;BME280;35405;52.344;14.530;2023-04-30T11:18:31;101542.78;;;12.05;99.43
49055;BME280;35405;52.344;14.530;2023-04-30T11:20:57;101550.69;;;12.07;97.22
49055;BME280;35405;52.344;14.530;2023-04-30T11:23:22;101537.66;;;11.94;98.58
49055;BME280;35405;52.344;14.530;2023-04-30T11:25:48;101539.28;;;11.95;96.74
49055;BME280;35405;52.344;14.530;2023-04-30T11:28:16;101540.06;;;12.00;96.42
49055;BME280;35405;52.344;14.530;2023-04-30T11:30:51;101533.16;;;12.18;98.69
49055;BME280;35405;52.344;14.530;2023-04-30T11:33:17;101535.97;;;12.52;99.68
49055;BME280;35405;52.344;14.530;2023-04-30T11:35:42;101538.38;;;12.54;96.92
49055;BME280;35405;52.344;14.530;2023-04-30T11:38:07;101531.69;;;12.36;97.79
49055;BME280;35405;52.344;14.530;2023-04-30T11:40:34;101537.53;;;12.19;93.19
49055;BME280;35405;52.344;14.530;2023-04-30T11:42:59;101532.06;;;12.19;93.72
49055;BME280;35405;52.344;14.530;2023-04-30T11:45:24;101529.88;;;12.21;88.18
49055;BME280;35405;52.344;14.530;2023-04-30T11:47:52;101530.19;;;12.15;90.25
49055;BME280;35405;52.344;14.530;2023-04-30T11:50:27;101532.09;;;12.14;88.48
49055;BME280;35405;52.344;14.530;2023-04-30T11:52:57;101535.44;;;12.01;88.28
49055;BME280;35405;52.344;14.530;2023-04-30T11:55:29;101532.44;;;12.02;88.96
49055;BME280;35405;52.344;14.530;2023-04-30T11:57:55;101526.38;;;12.16;91.94
49055;BME280;35405;52.344;14.530;2023-04-30T12:00:26;101536.91;;;12.27;90.33
49055;BME280;35405;52.344;14.530;2023-04-30T12:02:52;101534.81;;;12.19;89.18
49055;BME280;35405;52.344;14.530;2023-04-30T12:05:18;101536.41;;;12.25;87.24
49055;BME280;35405;52.344;14.530;2023-04-30T12:07:48;101517.31;;;12.25;90.47
49055;BME280;35405;52.344;14.530;2023-04-30T12:10:13;101527.19;;;12.61;92.83
49055;BME280;35405;52.344;14.530;2023-04-30T12:12:39;101530.50;;;12.52;87.81
49055;BME280;35405;52.344;14.530;2023-04-30T12:15:11;101528.03;;;12.51;86.92
49055;BME280;35405;52.344;14.530;2023-04-30T12:17:37;101524.59;;;12.35;88.94
49055;BME280;35405;52.344;14.530;2023-04-30T12:20:02;101525.41;;;12.41;90.19
49055;BME280;35405;52.344;14.530;2023-04-30T12:22:29;101517.19;;;12.46;87.56
49055;BME280;35405;52.344;14.530;2023-04-30T12:24:54;101522.91;;;12.44;88.50
49055;BME280;35405;52.344;14.530;2023-04-30T12:27:20;101522.44;;;12.71;90.31
49055;BME280;35405;52.344;14.530;2023-04-30T12:29:45;101528.38;;;12.78;85.79
49055;BME280;35405;52.344;14.530;2023-04-30T12:32:12;101517.06;;;12.61;79.85
49055;BME280;35405;52.344;14.530;2023-04-30T12:34:40;101514.41;;;12.51;80.65
49055;BME280;35405;52.344;14.530;2023-04-30T12:37:06;101519.25;;;12.59;83.47
49055;BME280;35405;52.344;14.530;2023-04-30T12:39:34;101513.22;;;12.62;82.24
49055;BME280;35405;52.344;14.530;2023-04-30T12:42:02;101516.44;;;12.69;82.85
49055;BME280;35405;52.344;14.530;2023-04-30T12:44:28;101515.69;;;12.93;84.90
49055;BME280;35405;52.344;14.530;2023-04-30T12:46:54;101513.47;;;12.66;81.04
49055;BME280;35405;52.344;14.530;2023-04-30T12:49:27;101518.41;;;12.64;83.63
49055;BME280;35405;52.344;14.530;2023-04-30T12:51:59;101508.75;;;12.76;83.46
49055;BME280;35405;52.344;14.530;2023-04-30T12:54:31;101512.63;;;12.70;79.33
49055;BME280;35405;52.344;14.530;2023-04-30T12:57:15;101512.13;;;12.63;79.17
49055;BME280;35405;52.344;14.530;2023-04-30T12:59:57;101504.19;;;12.67;80.24
49055;BME280;35405;52.344;14.530;2023-04-30T13:02:26;101494.78;;;12.83;80.94
49055;BME280;35405;52.344;14.530;2023-04-30T13:04:52;101500.31;;;13.02;78.93
49055;BME280;35405;52.344;14.530;2023-04-30T13:07:18;101499.66;;;12.86;74.50
49055;BME280;35405;52.344;14.530;2023-04-30T13:09:44;101500.25;;;12.78;74.80
49055;BME280;35405;52.344;14.530;2023-04-30T13:12:09;101495.63;;;12.78;70.86
49055;BME280;35405;52.344;14.530;2023-04-30T13:14:34;101494.34;;;12.71;72.47
49055;BME280;35405;52.344;14.530;2023-04-30T13:17:00;101501.84;;;12.55;74.61
49055;BME280;35405;52.344;14.530;2023-04-30T13:19:28;101485.56;;;12.74;77.67
49055;BME280;35405;52.344;14.530;2023-04-30T13:21:54;101484.84;;;12.92;72.91
49055;BME280;35405;52.344;14.530;2023-04-30T13:24:19;101488.00;;;12.75;68.71
49055;BME280;35405;52.344;14.530;2023-04-30T13:26:44;101485.53;;;12.79;69.74
49055;BME280;35405;52.344;14.530;2023-04-30T13:29:10;101495.63;;;12.78;68.61
49055;BME280;35405;52.344;14.530;2023-04-30T13:31:35;101480.97;;;12.69;75.25
49055;BME280;35405;52.344;14.530;2023-04-30T13:34:01;101482.50;;;12.80;72.49
49055;BME280;35405;52.344;14.530;2023-04-30T13:36:26;101478.97;;;12.80;75.08
49055;BME280;35405;52.344;14.530;2023-04-30T13:38:51;101475.28;;;12.95;77.93
49055;BME280;35405;52.344;14.530;2023-04-30T13:41:19;101484.13;;;13.11;77.12
49055;BME280;35405;52.344;14.530;2023-04-30T13:43:46;101475.56;;;12.93;74.73
49055;BME280;35405;52.344;14.530;2023-04-30T13:46:12;101475.56;;;12.93;78.42
49055;BME280;35405;52.344;14.530;2023-04-30T13:48:38;101479.78;;;13.10;80.01
49055;BME280;35405;52.344;14.530;2023-04-30T13:51:03;101467.84;;;13.00;80.74
49055;BME280;35405;52.344;14.530;2023-04-30T13:53:28;101473.63;;;13.23;83.89
49055;BME280;35405;52.344;14.530;2023-04-30T13:55:53;101476.16;;;13.43;82.64
49055;BME280;35405;52.344;14.530;2023-04-30T13:58:19;101470.88;;;13.52;80.20
49055;BME280;35405;52.344;14.530;2023-04-30T14:00:44;101477.09;;;13.34;82.68
49055;BME280;35405;52.344;14.530;2023-04-30T14:03:10;101467.31;;;12.98;78.85
49055;BME280;35405;52.344;14.530;2023-04-30T14:05:36;101477.72;;;12.67;81.11
49055;BME280;35405;52.344;14.530;2023-04-30T14:08:10;101470.03;;;12.69;83.19
49055;BME280;35405;52.344;14.530;2023-04-30T14:10:36;101467.44;;;12.88;84.76
49055;BME280;35405;52.344;14.530;2023-04-30T14:13:01;101456.78;;;12.87;83.14
49055;BME280;35405;52.344;14.530;2023-04-30T14:15:27;101465.94;;;13.01;85.55
49055;BME280;35405;52.344;14.530;2023-04-30T14:17:54;101463.28;;;13.20;81.22
49055;BME280;35405;52.344;14.530;2023-04-30T14:20:19;101451.47;;;13.00;80.52
49055;BME280;35405;52.344;14.530;2023-04-30T14:22:44;101457.75;;;12.72;78.89
49055;BME280;35405;52.344;14.530;2023-04-30T14:25:10;101452.78;;;12.79;82.31
49055;BME280;35405;52.344;14.530;2023-04-30T14:27:35;101448.13;;;12.79;82.01
49055;BME280;35405;52.344;14.530;2023-04-30T14:30:01;101453.81;;;12.83;80.10
49055;BME280;35405;52.344;14.530;2023-04-30T14:32:27;101450.31;;;12.77;78.96
49055;BME280;35405;52.344;14.530;2023-04-30T14:34:52;101453.94;;;12.73;79.03
49055;BME280;35405;52.344;14.530;2023-04-30T14:37:18;101454.41;;;12.80;80.14
49055;BME280;35405;52.344;14.530;2023-04-30T14:39:43;101447.47;;;12.64;80.35
49055;BME280;35405;52.344;14.530;2023-04-30T14:42:09;101448.63;;;12.52;79.44
49055;BME280;35405;52.344;14.530;2023-04-30T14:44:34;101451.84;;;12.59;77.92
49055;BME280;35405;52.344;14.530;2023-04-30T14:46:59;101450.78;;;12.55;80.44
49055;BME280;35405;52.344;14.530;2023-04-30T14:49:25;101456.53;;;12.54;81.68
49055;BME280;35405;52.344;14.530;2023-04-30T14:51:50;101442.38;;;12.52;81.13
49055;BME280;35405;52.344;14.530;2023-04-30T14:54:16;101449.09;;;12.65;81.37
49055;BME280;35405;52.344;14.530;2023-04-30T14:56:41;101448.03;;;12.61;81.55
49055;BME280;35405;52.344;14.530;2023-04-30T14:59:06;101456.22;;;12.61;77.98
49055;BME280;35405;52.344;14.530;2023-04-30T15:01:31;101451.03;;;12.59;80.58
49055;BME280;35405;52.344;14.530;2023-04-30T15:03:56;101449.41;;;12.58;80.44
49055;BME280;35405;52.344;14.530;2023-04-30T15:06:21;101450.03;;;12.50;79.75
49055;BME280;35405;52.344;14.530;2023-04-30T15:08:47;101448.53;;;12.33;78.16
49055;BME280;35405;52.344;14.530;2023-04-30T15:11:12;101451.50;;;12.37;80.06
49055;BME280;35405;52.344;14.530;2023-04-30T15:13:38;101456.66;;;12.39;75.42
49055;BME280;35405;52.344;14.530;2023-04-30T15:16:04;101445.03;;;12.28;76.42
49055;BME280;35405;52.344;14.530;2023-04-30T15:18:29;101451.25;;;12.33;76.25
49055;BME280;35405;52.344;14.530;2023-04-30T15:20:55;101454.91;;;12.19;78.99
49055;BME280;35405;52.344;14.530;2023-04-30T15:23:21;101458.47;;;12.14;80.05
49055;BME280;35405;52.344;14.530;2023-04-30T15:25:46;101451.88;;;12.20;75.91
49055;BME280;35405;52.344;14.530;2023-04-30T15:28:12;101449.69;;;12.22;74.54
49055;BME280;35405;52.344;14.530;2023-04-30T15:30:37;101447.81;;;12.18;70.23
49055;BME280;35405;52.344;14.530;2023-04-30T15:33:02;101455.47;;;12.16;72.22
49055;BME280;35405;52.344;14.530;2023-04-30T15:35:27;101451.41;;;12.13;69.93
49055;BME280;35405;52.344;14.530;2023-04-30T15:37:53;101449.19;;;12.15;72.54
49055;BME280;35405;52.344;14.530;2023-04-30T15:40:18;101453.78;;;12.20;73.16
49055;BME280;35405;52.344;14.530;2023-04-30T15:42:43;101456.28;;;12.16;72.25
49055;BME280;35405;52.344;14.530;2023-04-30T15:45:08;101453.34;;;12.07;73.59
49055;BME280;35405;52.344;14.530;2023-04-30T15:47:34;101452.78;;;12.05;75.17
49055;BME280;35405;52.344;14.530;2023-04-30T15:49:59;101446.78;;;12.03;70.89
49055;BME280;35405;52.344;14.530;2023-04-30T15:52:24;101448.78;;;11.98;72.67
49055;BME280;35405;52.344;14.530;2023-04-30T15:54:50;101452.53;;;12.07;73.82
49055;BME280;35405;52.344;14.530;2023-04-30T15:57:15;101450.38;;;12.04;69.41
49055;BME280;35405;52.344;14.530;2023-04-30T15:59:40;101443.34;;;11.93;71.19
49055;BME280;35405;52.344;14.530;2023-04-30T16:02:05;101434.91;;;11.89;70.68
49055;BME280;35405;52.344;14.530;2023-04-30T16:04:31;101433.81;;;11.85;70.41
49055;BME280;35405;52.344;14.530;2023-04-30T16:06:56;101433.88;;;11.75;70.47
49055;BME280;35405;52.344;14.530;2023-04-30T16:09:21;101438.44;;;11.95;73.05
49055;BME280;35405;52.344;14.530;2023-04-30T16:11:46;101432.13;;;11.94;70.00
49055;BME280;35405;52.344;14.530;2023-04-30T16:14:12;101428.66;;;11.88;68.78
49055;BME280;35405;52.344;14.530;2023-04-30T16:16:37;101433.00;;;11.89;70.82
49055;BME280;35405;52.344;14.530;2023-04-30T16:19:05;101433.25;;;11.88;71.23
49055;BME280;35405;52.344;14.530;2023-04-30T16:21:32;101425.66;;;11.80;72.54
49055;BME280;35405;52.344;14.530;2023-04-30T16:23:57;101425.38;;;11.81;70.90
49055;BME280;35405;52.344;14.530;2023-04-30T16:26:22;101428.91;;;11.82;73.23
49055;BME280;35405;52.344;14.530;2023-04-30T16:28:48;101434.63;;;11.90;73.01
49055;BME280;35405;52.344;14.530;2023-04-30T16:31:13;101431.66;;;11.87;73.32
49055;BME280;35405;52.344;14.530;2023-04-30T16:33:39;101426.50;;;11.75;72.93
49055;BME280;35405;52.344;14.530;2023-04-30T16:36:05;101426.03;;;11.63;75.09
49055;BME280;35405;52.344;14.530;2023-04-30T16:38:31;101415.69;;;11.55;73.90
49055;BME280;35405;52.344;14.530;2023-04-30T16:40:56;101416.50;;;11.60;74.03
49055;BME280;35405;52.344;14.530;2023-04-30T16:43:21;101417.28;;;11.66;72.97
49055;BME280;35405;52.344;14.530;2023-04-30T16:45:46;101431.22;;;11.64;73.31
49055;BME280;35405;52.344;14.530;2023-04-30T16:48:11;101414.56;;;11.61;72.06
49055;BME280;35405;52.344;14.530;2023-04-30T16:50:37;101421.13;;;11.60;72.32
49055;BME280;35405;52.344;14.530;2023-04-30T16:53:02;101412.75;;;11.46;73.39
49055;BME280;35405;52.344;14.530;2023-04-30T16:55:27;101408.38;;;11.50;69.73
49055;BME280;35405;52.344;14.530;2023-04-30T16:57:52;101412.47;;;11.48;69.40
49055;BME280;35405;52.344;14.530;2023-04-30T17:00:18;101414.41;;;11.42;68.92
49055;BME280;35405;52.344;14.530;2023-04-30T17:02:43;101414.72;;;11.35;69.21
49055;BME280;35405;52.344;14.530;2023-04-30T17:05:16;101413.91;;;11.30;69.43
49055;BME280;35405;52.344;14.530;2023-04-30T17:07:41;101418.31;;;11.20;70.05
49055;BME280;35405;52.344;14.530;2023-04-30T17:10:10;101416.13;;;11.23;69.93
49055;BME280;35405;52.344;14.530;2023-04-30T17:12:35;101410.41;;;11.19;70.83
49055;BME280;35405;52.344;14.530;2023-04-30T17:15:01;101410.75;;;11.07;72.39
49055;BME280;35405;52.344;14.530;2023-04-30T17:17:26;101417.56;;;10.99;74.69
49055;BME280;35405;52.344;14.530;2023-04-30T17:19:51;101415.63;;;11.00;76.17
49055;BME280;35405;52.344;14.530;2023-04-30T17:22:16;101419.47;;;10.94;73.08
49055;BME280;35405;52.344;14.530;2023-04-30T17:24:44;101412.66;;;10.96;73.48
49055;BME280;35405;52.344;14.530;2023-04-30T17:27:09;101416.47;;;10.90;74.46
49055;BME280;35405;52.344;14.530;2023-04-30T17:29:34;101416.75;;;10.89;72.61
49055;BME280;35405;52.344;14.530;2023-04-30T17:31:59;101408.88;;;10.82;73.38
49055;BME280;35405;52.344;14.530;2023-04-30T17:34:25;101406.44;;;10.75;75.14
49055;BME280;35405;52.344;14.530;2023-04-30T17:36:51;101412.69;;;10.71;76.01
49055;BME280;35405;52.344;14.530;2023-04-30T17:39:16;101412.16;;;10.64;76.92
49055;BME280;35405;52.344;14.530;2023-04-30T17:41:42;101412.72;;;10.61;78.34
49055;BME280;35405;52.344;14.530;2023-04-30T17:44:07;101406.47;;;10.55;79.18
49055;BME280;35405;52.344;14.530;2023-04-30T17:46:33;101407.81;;;10.52;80.50
49055;BME280;35405;52.344;14.530;2023-04-30T17:48:59;101414.09;;;10.53;81.14
49055;BME280;35405;52.344;14.530;2023-04-30T17:51:28;101413.81;;;10.39;82.92
49055;BME280;35405;52.344;14.530;2023-04-30T17:53:53;101418.19;;;10.35;84.97
49055;BME280;35405;52.344;14.530;2023-04-30T17:56:19;101414.91;;;10.33;85.20
49055;BME280;35405;52.344;14.530;2023-04-30T17:58:44;101418.13;;;10.25;86.02
49055;BME280;35405;52.344;14.530;2023-04-30T18:01:10;101418.66;;;10.17;87.59
49055;BME280;35405;52.344;14.530;2023-04-30T18:03:35;101415.97;;;10.12;88.25
49055;BME280;35405;52.344;14.530;2023-04-30T18:06:00;101405.09;;;10.12;90.32
49055;BME280;35405;52.344;14.530;2023-04-30T18:08:25;101421.66;;;10.05;90.53
49055;BME280;35405;52.344;14.530;2023-04-30T18:10:51;101420.53;;;9.85;91.53
49055;BME280;35405;52.344;14.530;2023-04-30T18:13:16;101419.94;;;9.63;94.45
49055;BME280;35405;52.344;14.530;2023-04-30T18:15:42;101424.00;;;9.60;96.55
49055;BME280;35405;52.344;14.530;2023-04-30T18:18:07;101423.97;;;9.55;98.86
49055;BME280;35405;52.344;14.530;2023-04-30T18:20:33;101426.63;;;9.40;99.61
49055;BME280;35405;52.344;14.530;2023-04-30T18:22:58;101420.31;;;9.24;100.00
49055;BME280;35405;52.344;14.530;2023-04-30T18:25:23;101416.25;;;9.22;100.00
49055;BME280;35405;52.344;14.530;2023-04-30T18:27:48;101421.94;;;9.25;100.00
49055;BME280;35405;52.344;14.530;2023-04-30T18:30:14;101419.75;;;9.22;100.00